sensor_id;sensor_type;location;lat;lon;timestamp;P1;durP1;ratioP1;P2;durP2;ratioP2
62153;SDS011;48140;45.486;9.226;2023-03-14T00:01:30;17.65;;;9.95;;
62153;SDS011;48140;45.486;9.226;2023-03-14T00:03:56;18.27;;;9.70;;
62153;SDS011;48140;45.486;9.226;2023-03-14T00:06:22;15.05;;;9.38;;
62153;SDS011;48140;45.486;9.226;2023-03-14T00:08:48;15.60;;;9.35;;
62153;SDS011;48140;45.486;9.226;2023-03-14T00:11:15;17.23;;;9.98;;
62153;SDS011;48140;45.486;9.226;2023-03-14T00:13:43;16.75;;;9.55;;
62153;SDS011;48140;45.486;9.226;2023-03-14T00:16:11;13.50;;;8.85;;
62153;SDS011;48140;45.486;9.226;2023-03-14T00:18:37;18.15;;;8.93;;
62153;SDS011;48140;45.486;9.226;2023-03-14T00:21:04;13.38;;;8.95;;
62153;SDS011;48140;45.486;9.226;2023-03-14T00:23:33;18.00;;;9.90;;
62153;SDS011;48140;45.486;9.226;2023-03-14T00:26:04;17.65;;;9.27;;
62153;SDS011;48140;45.486;9.226;2023-03-14T00:28:31;13.27;;;8.38;;
62153;SDS011;48140;45.486;9.226;2023-03-14T00:30:57;16.23;;;8.32;;
62153;SDS011;48140;45.486;9.226;2023-03-14T00:33:23;17.48;;;8.45;;
62153;SDS011;48140;45.486;9.226;2023-03-14T00:35:55;16.83;;;8.20;;
62153;SDS011;48140;45.486;9.226;2023-03-14T00:38:23;14.95;;;8.48;;
62153;SDS011;48140;45.486;9.226;2023-03-14T00:40:49;15.20;;;8.77;;
62153;SDS011;48140;45.486;9.226;2023-03-14T00:43:19;14.55;;;8.25;;
62153;SDS011;48140;45.486;9.226;2023-03-14T00:45:51;17.23;;;9.68;;
62153;SDS011;48140;45.486;9.226;2023-03-14T00:48:17;16.65;;;8.77;;
62153;SDS011;48140;45.486;9.226;2023-03-14T00:50:44;13.27;;;8.18;;
62153;SDS011;48140;45.486;9.226;2023-03-14T00:53:10;13.68;;;8.25;;
62153;SDS011;48140;45.486;9.226;2023-03-14T00:55:39;12.25;;;8.23;;
62153;SDS011;48140;45.486;9.226;2023-03-14T00:58:07;12.23;;;7.65;;
62153;SDS011;48140;45.486;9.226;2023-03-14T01:00:33;13.73;;;7.72;;
62153;SDS011;48140;45.486;9.226;2023-03-14T01:03:00;16.05;;;7.93;;
62153;SDS011;48140;45.486;9.226;2023-03-14T01:15:47;12.50;;;7.53;;
62153;SDS011;48140;45.486;9.226;2023-03-14T01:18:13;11.05;;;7.45;;
62153;SDS011;48140;45.486;9.226;2023-03-14T01:20:39;11.18;;;7.63;;
62153;SDS011;48140;45.486;9.226;2023-03-14T01:31:13;12.05;;;7.82;;
62153;SDS011;48140;45.486;9.226;2023-03-14T01:33:39;12.63;;;8.05;;
62153;SDS011;48140;45.486;9.226;2023-03-14T01:36:06;14.30;;;7.03;;
62153;SDS011;48140;45.486;9.226;2023-03-14T01:38:33;13.85;;;7.20;;
62153;SDS011;48140;45.486;9.226;2023-03-14T01:41:01;13.55;;;7.50;;
62153;SDS011;48140;45.486;9.226;2023-03-14T01:43:27;13.35;;;7.82;;
62153;SDS011;48140;45.486;9.226;2023-03-14T01:54:31;14.93;;;7.32;;
62153;SDS011;48140;45.486;9.226;2023-03-14T01:57:22;15.35;;;7.45;;
62153;SDS011;48140;45.486;9.226;2023-03-14T01:59:57;12.35;;;7.57;;
62153;SDS011;48140;45.486;9.226;2023-03-14T02:02:38;14.95;;;8.10;;
62153;SDS011;48140;45.486;9.226;2023-03-14T02:05:07;14.32;;;8.68;;
62153;SDS011;48140;45.486;9.226;2023-03-14T02:07:39;13.75;;;8.32;;
62153;SDS011;48140;45.486;9.226;2023-03-14T02:10:12;13.20;;;8.40;;
62153;SDS011;48140;45.486;9.226;2023-03-14T02:12:40;13.48;;;8.35;;
62153;SDS011;48140;45.486;9.226;2023-03-14T02:15:06;14.57;;;8.82;;
62153;SDS011;48140;45.486;9.226;2023-03-14T02:17:32;13.15;;;8.70;;
62153;SDS011;48140;45.486;9.226;2023-03-14T02:22:30;16.13;;;7.95;;
62153;SDS011;48140;45.486;9.226;2023-03-14T02:27:38;14.73;;;8.43;;
62153;SDS011;48140;45.486;9.226;2023-03-14T02:30:05;13.90;;;7.80;;
62153;SDS011;48140;45.486;9.226;2023-03-14T02:32:36;20.33;;;8.65;;
62153;SDS011;48140;45.486;9.226;2023-03-14T02:35:06;14.77;;;7.47;;
62153;SDS011;48140;45.486;9.226;2023-03-14T02:37:47;13.82;;;8.20;;
62153;SDS011;48140;45.486;9.226;2023-03-14T02:40:17;15.32;;;8.27;;
62153;SDS011;48140;45.486;9.226;2023-03-14T02:42:43;15.95;;;8.55;;
62153;SDS011;48140;45.486;9.226;2023-03-14T02:47:34;14.50;;;8.13;;
62153;SDS011;48140;45.486;9.226;2023-03-14T02:50:15;14.80;;;8.00;;
62153;SDS011;48140;45.486;9.226;2023-03-14T02:52:44;11.63;;;7.40;;
62153;SDS011;48140;45.486;9.226;2023-03-14T02:55:10;14.18;;;7.60;;
62153;SDS011;48140;45.486;9.226;2023-03-14T02:57:36;16.95;;;8.30;;
62153;SDS011;48140;45.486;9.226;2023-03-14T03:00:02;17.75;;;8.05;;
62153;SDS011;48140;45.486;9.226;2023-03-14T03:02:31;13.80;;;8.30;;
62153;SDS011;48140;45.486;9.226;2023-03-14T03:04:57;15.65;;;8.63;;
62153;SDS011;48140;45.486;9.226;2023-03-14T03:07:23;13.30;;;7.70;;
62153;SDS011;48140;45.486;9.226;2023-03-14T03:09:49;13.38;;;8.05;;
62153;SDS011;48140;45.486;9.226;2023-03-14T03:12:14;13.48;;;8.05;;
62153;SDS011;48140;45.486;9.226;2023-03-14T03:14:40;12.88;;;7.80;;
62153;SDS011;48140;45.486;9.226;2023-03-14T03:17:06;11.52;;;7.55;;
62153;SDS011;48140;45.486;9.226;2023-03-14T03:19:33;11.80;;;7.78;;
62153;SDS011;48140;45.486;9.226;2023-03-14T03:21:59;13.35;;;8.23;;
62153;SDS011;48140;45.486;9.226;2023-03-14T03:24:25;11.00;;;7.47;;
62153;SDS011;48140;45.486;9.226;2023-03-14T03:26:51;11.88;;;7.43;;
62153;SDS011;48140;45.486;9.226;2023-03-14T03:29:17;15.07;;;8.05;;
62153;SDS011;48140;45.486;9.226;2023-03-14T03:31:42;13.18;;;7.82;;
62153;SDS011;48140;45.486;9.226;2023-03-14T03:34:10;15.35;;;7.25;;
62153;SDS011;48140;45.486;9.226;2023-03-14T03:36:37;13.20;;;7.40;;
62153;SDS011;48140;45.486;9.226;2023-03-14T03:39:02;11.25;;;7.28;;
62153;SDS011;48140;45.486;9.226;2023-03-14T03:41:29;11.57;;;7.80;;
62153;SDS011;48140;45.486;9.226;2023-03-14T03:43:55;13.23;;;7.38;;
62153;SDS011;48140;45.486;9.226;2023-03-14T03:46:21;13.13;;;7.13;;
62153;SDS011;48140;45.486;9.226;2023-03-14T03:48:47;13.77;;;7.28;;
62153;SDS011;48140;45.486;9.226;2023-03-14T03:51:13;13.32;;;7.43;;
62153;SDS011;48140;45.486;9.226;2023-03-14T03:53:40;14.93;;;7.47;;
62153;SDS011;48140;45.486;9.226;2023-03-14T03:56:07;14.10;;;7.55;;
62153;SDS011;48140;45.486;9.226;2023-03-14T03:58:33;12.82;;;7.63;;
62153;SDS011;48140;45.486;9.226;2023-03-14T04:00:59;13.75;;;7.97;;
62153;SDS011;48140;45.486;9.226;2023-03-14T04:03:25;12.25;;;7.60;;
62153;SDS011;48140;45.486;9.226;2023-03-14T04:05:58;11.63;;;7.45;;
62153;SDS011;48140;45.486;9.226;2023-03-14T04:08:30;12.38;;;7.20;;
62153;SDS011;48140;45.486;9.226;2023-03-14T04:10:57;13.82;;;7.65;;
62153;SDS011;48140;45.486;9.226;2023-03-14T04:13:24;15.98;;;8.30;;
62153;SDS011;48140;45.486;9.226;2023-03-14T04:15:50;11.15;;;7.05;;
62153;SDS011;48140;45.486;9.226;2023-03-14T04:18:16;15.90;;;8.05;;
62153;SDS011;48140;45.486;9.226;2023-03-14T04:20:43;13.70;;;7.53;;
62153;SDS011;48140;45.486;9.226;2023-03-14T04:23:09;14.30;;;7.55;;
62153;SDS011;48140;45.486;9.226;2023-03-14T04:25:34;11.20;;;7.50;;
62153;SDS011;48140;45.486;9.226;2023-03-14T04:28:01;13.05;;;7.32;;
62153;SDS011;48140;45.486;9.226;2023-03-14T04:30:28;13.30;;;8.23;;
62153;SDS011;48140;45.486;9.226;2023-03-14T04:32:53;14.48;;;7.72;;
62153;SDS011;48140;45.486;9.226;2023-03-14T04:35:19;12.15;;;7.53;;
62153;SDS011;48140;45.486;9.226;2023-03-14T04:37:45;13.95;;;7.18;;
62153;SDS011;48140;45.486;9.226;2023-03-14T04:40:14;13.05;;;7.65;;
62153;SDS011;48140;45.486;9.226;2023-03-14T04:42:40;13.10;;;7.88;;
62153;SDS011;48140;45.486;9.226;2023-03-14T04:45:06;12.32;;;7.65;;
62153;SDS011;48140;45.486;9.226;2023-03-14T04:47:32;14.38;;;8.10;;
62153;SDS011;48140;45.486;9.226;2023-03-14T04:49:59;13.05;;;6.93;;
62153;SDS011;48140;45.486;9.226;2023-03-14T04:52:25;13.68;;;7.40;;
62153;SDS011;48140;45.486;9.226;2023-03-14T04:54:51;15.23;;;7.93;;
62153;SDS011;48140;45.486;9.226;2023-03-14T04:57:17;13.50;;;7.88;;
62153;SDS011;48140;45.486;9.226;2023-03-14T04:59:43;14.80;;;8.13;;
62153;SDS011;48140;45.486;9.226;2023-03-14T05:02:08;16.50;;;7.50;;
62153;SDS011;48140;45.486;9.226;2023-03-14T05:04:34;13.02;;;7.28;;
62153;SDS011;48140;45.486;9.226;2023-03-14T05:07:00;12.93;;;7.53;;
62153;SDS011;48140;45.486;9.226;2023-03-14T05:09:26;11.60;;;7.30;;
62153;SDS011;48140;45.486;9.226;2023-03-14T05:11:52;14.98;;;7.28;;
62153;SDS011;48140;45.486;9.226;2023-03-14T05:14:18;15.77;;;7.45;;
62153;SDS011;48140;45.486;9.226;2023-03-14T05:16:43;13.93;;;7.93;;
62153;SDS011;48140;45.486;9.226;2023-03-14T05:19:10;14.80;;;7.75;;
62153;SDS011;48140;45.486;9.226;2023-03-14T05:21:36;13.15;;;7.70;;
62153;SDS011;48140;45.486;9.226;2023-03-14T05:24:02;14.65;;;7.47;;
62153;SDS011;48140;45.486;9.226;2023-03-14T05:26:28;14.48;;;7.65;;
62153;SDS011;48140;45.486;9.226;2023-03-14T05:28:54;15.02;;;7.80;;
62153;SDS011;48140;45.486;9.226;2023-03-14T05:31:20;14.75;;;7.70;;
62153;SDS011;48140;45.486;9.226;2023-03-14T05:33:45;13.63;;;8.27;;
62153;SDS011;48140;45.486;9.226;2023-03-14T05:36:11;12.07;;;6.97;;
62153;SDS011;48140;45.486;9.226;2023-03-14T05:38:37;15.20;;;7.93;;
62153;SDS011;48140;45.486;9.226;2023-03-14T05:41:03;11.82;;;8.10;;
62153;SDS011;48140;45.486;9.226;2023-03-14T05:43:29;14.38;;;8.10;;
62153;SDS011;48140;45.486;9.226;2023-03-14T05:45:54;14.93;;;8.45;;
62153;SDS011;48140;45.486;9.226;2023-03-14T05:48:20;21.08;;;8.35;;
62153;SDS011;48140;45.486;9.226;2023-03-14T05:50:46;15.73;;;7.82;;
62153;SDS011;48140;45.486;9.226;2023-03-14T05:53:12;12.77;;;7.82;;
62153;SDS011;48140;45.486;9.226;2023-03-14T05:55:41;14.65;;;7.93;;
62153;SDS011;48140;45.486;9.226;2023-03-14T05:58:07;13.93;;;7.80;;
62153;SDS011;48140;45.486;9.226;2023-03-14T06:00:32;16.83;;;8.43;;
62153;SDS011;48140;45.486;9.226;2023-03-14T06:02:58;13.50;;;8.05;;
62153;SDS011;48140;45.486;9.226;2023-03-14T06:05:23;14.90;;;8.25;;
62153;SDS011;48140;45.486;9.226;2023-03-14T06:07:49;15.68;;;8.00;;
62153;SDS011;48140;45.486;9.226;2023-03-14T06:10:15;13.27;;;7.45;;
62153;SDS011;48140;45.486;9.226;2023-03-14T06:12:40;13.57;;;8.27;;
62153;SDS011;48140;45.486;9.226;2023-03-14T06:15:06;13.30;;;7.53;;
62153;SDS011;48140;45.486;9.226;2023-03-14T06:17:32;15.68;;;7.50;;
62153;SDS011;48140;45.486;9.226;2023-03-14T06:19:58;11.45;;;7.82;;
62153;SDS011;48140;45.486;9.226;2023-03-14T06:22:24;14.93;;;8.32;;
62153;SDS011;48140;45.486;9.226;2023-03-14T06:24:49;18.48;;;8.60;;
62153;SDS011;48140;45.486;9.226;2023-03-14T06:27:15;13.05;;;8.18;;
62153;SDS011;48140;45.486;9.226;2023-03-14T06:29:41;18.08;;;8.25;;
62153;SDS011;48140;45.486;9.226;2023-03-14T06:32:16;17.48;;;8.15;;
62153;SDS011;48140;45.486;9.226;2023-03-14T06:34:43;13.93;;;7.85;;
62153;SDS011;48140;45.486;9.226;2023-03-14T06:37:08;11.68;;;8.10;;
62153;SDS011;48140;45.486;9.226;2023-03-14T06:39:34;13.00;;;7.63;;
62153;SDS011;48140;45.486;9.226;2023-03-14T06:42:00;11.88;;;8.05;;
62153;SDS011;48140;45.486;9.226;2023-03-14T06:44:26;11.98;;;7.95;;
62153;SDS011;48140;45.486;9.226;2023-03-14T06:46:51;10.93;;;7.60;;
62153;SDS011;48140;45.486;9.226;2023-03-14T06:49:17;14.50;;;8.23;;
62153;SDS011;48140;45.486;9.226;2023-03-14T06:51:43;13.98;;;8.35;;
62153;SDS011;48140;45.486;9.226;2023-03-14T06:54:08;16.77;;;8.98;;
62153;SDS011;48140;45.486;9.226;2023-03-14T06:56:34;17.35;;;9.30;;
62153;SDS011;48140;45.486;9.226;2023-03-14T06:58:59;12.98;;;8.35;;
62153;SDS011;48140;45.486;9.226;2023-03-14T07:01:26;17.08;;;8.38;;
62153;SDS011;48140;45.486;9.226;2023-03-14T07:03:53;16.05;;;8.93;;
62153;SDS011;48140;45.486;9.226;2023-03-14T07:06:19;18.00;;;8.68;;
62153;SDS011;48140;45.486;9.226;2023-03-14T07:08:45;14.85;;;9.30;;
62153;SDS011;48140;45.486;9.226;2023-03-14T07:11:10;16.63;;;9.38;;
62153;SDS011;48140;45.486;9.226;2023-03-14T07:13:37;17.45;;;9.90;;
62153;SDS011;48140;45.486;9.226;2023-03-14T07:16:03;15.95;;;9.63;;
62153;SDS011;48140;45.486;9.226;2023-03-14T07:18:30;16.20;;;9.38;;
62153;SDS011;48140;45.486;9.226;2023-03-14T07:20:55;13.73;;;9.02;;
62153;SDS011;48140;45.486;9.226;2023-03-14T07:23:21;16.23;;;9.90;;
62153;SDS011;48140;45.486;9.226;2023-03-14T07:25:47;21.95;;;10.00;;
62153;SDS011;48140;45.486;9.226;2023-03-14T07:28:12;15.50;;;8.80;;
62153;SDS011;48140;45.486;9.226;2023-03-14T07:30:38;20.42;;;9.80;;
62153;SDS011;48140;45.486;9.226;2023-03-14T07:33:06;16.95;;;9.32;;
62153;SDS011;48140;45.486;9.226;2023-03-14T07:35:31;15.52;;;9.00;;
62153;SDS011;48140;45.486;9.226;2023-03-14T07:37:57;16.52;;;9.10;;
62153;SDS011;48140;45.486;9.226;2023-03-14T07:40:22;15.48;;;8.52;;
62153;SDS011;48140;45.486;9.226;2023-03-14T07:42:48;14.45;;;9.18;;
62153;SDS011;48140;45.486;9.226;2023-03-14T07:45:14;14.93;;;8.65;;
62153;SDS011;48140;45.486;9.226;2023-03-14T07:47:40;28.95;;;10.02;;
62153;SDS011;48140;45.486;9.226;2023-03-14T07:50:06;13.13;;;7.72;;
62153;SDS011;48140;45.486;9.226;2023-03-14T07:52:32;12.07;;;8.15;;
62153;SDS011;48140;45.486;9.226;2023-03-14T07:54:58;14.15;;;9.13;;
62153;SDS011;48140;45.486;9.226;2023-03-14T07:57:24;12.32;;;8.38;;
62153;SDS011;48140;45.486;9.226;2023-03-14T07:59:50;11.35;;;8.35;;
62153;SDS011;48140;45.486;9.226;2023-03-14T08:02:15;12.95;;;8.40;;
62153;SDS011;48140;45.486;9.226;2023-03-14T08:04:42;16.00;;;8.80;;
62153;SDS011;48140;45.486;9.226;2023-03-14T08:07:08;15.82;;;7.57;;
62153;SDS011;48140;45.486;9.226;2023-03-14T08:09:34;15.30;;;8.68;;
62153;SDS011;48140;45.486;9.226;2023-03-14T08:11:59;14.32;;;8.90;;
62153;SDS011;48140;45.486;9.226;2023-03-14T08:14:25;16.80;;;8.93;;
62153;SDS011;48140;45.486;9.226;2023-03-14T08:16:54;14.70;;;8.68;;
62153;SDS011;48140;45.486;9.226;2023-03-14T08:19:19;14.95;;;8.93;;
62153;SDS011;48140;45.486;9.226;2023-03-14T08:21:45;15.48;;;8.95;;
62153;SDS011;48140;45.486;9.226;2023-03-14T08:24:11;12.27;;;8.85;;
62153;SDS011;48140;45.486;9.226;2023-03-14T08:26:37;14.48;;;8.85;;
62153;SDS011;48140;45.486;9.226;2023-03-14T08:29:02;16.02;;;9.73;;
62153;SDS011;48140;45.486;9.226;2023-03-14T08:31:29;18.25;;;9.95;;
62153;SDS011;48140;45.486;9.226;2023-03-14T08:33:57;14.60;;;8.80;;
62153;SDS011;48140;45.486;9.226;2023-03-14T08:36:24;14.80;;;9.20;;
62153;SDS011;48140;45.486;9.226;2023-03-14T08:38:49;16.55;;;9.77;;
62153;SDS011;48140;45.486;9.226;2023-03-14T08:41:15;13.88;;;8.68;;
62153;SDS011;48140;45.486;9.226;2023-03-14T08:43:41;17.10;;;9.65;;
62153;SDS011;48140;45.486;9.226;2023-03-14T08:46:06;16.50;;;9.50;;
62153;SDS011;48140;45.486;9.226;2023-03-14T08:48:32;14.82;;;8.40;;
62153;SDS011;48140;45.486;9.226;2023-03-14T08:51:10;14.02;;;8.55;;
62153;SDS011;48140;45.486;9.226;2023-03-14T08:53:38;12.95;;;8.93;;
62153;SDS011;48140;45.486;9.226;2023-03-14T08:56:05;14.43;;;8.00;;
62153;SDS011;48140;45.486;9.226;2023-03-14T08:58:32;13.07;;;8.05;;
62153;SDS011;48140;45.486;9.226;2023-03-14T09:00:58;12.43;;;8.45;;
62153;SDS011;48140;45.486;9.226;2023-03-14T09:03:24;16.42;;;7.53;;
62153;SDS011;48140;45.486;9.226;2023-03-14T09:05:50;12.73;;;8.15;;
62153;SDS011;48140;45.486;9.226;2023-03-14T09:08:16;15.88;;;8.38;;
62153;SDS011;48140;45.486;9.226;2023-03-14T09:10:42;15.40;;;9.80;;
62153;SDS011;48140;45.486;9.226;2023-03-14T09:13:08;14.50;;;9.07;;
62153;SDS011;48140;45.486;9.226;2023-03-14T09:15:34;15.23;;;9.25;;
62153;SDS011;48140;45.486;9.226;2023-03-14T09:17:59;13.48;;;8.90;;
62153;SDS011;48140;45.486;9.226;2023-03-14T09:20:25;15.38;;;10.10;;
62153;SDS011;48140;45.486;9.226;2023-03-14T09:22:51;15.60;;;9.80;;
62153;SDS011;48140;45.486;9.226;2023-03-14T09:25:17;13.63;;;9.48;;
62153;SDS011;48140;45.486;9.226;2023-03-14T09:27:42;15.57;;;9.07;;
62153;SDS011;48140;45.486;9.226;2023-03-14T09:30:08;15.52;;;10.02;;
62153;SDS011;48140;45.486;9.226;2023-03-14T09:32:34;16.33;;;10.68;;
62153;SDS011;48140;45.486;9.226;2023-03-14T09:35:00;20.95;;;11.00;;
62153;SDS011;48140;45.486;9.226;2023-03-14T09:37:26;22.10;;;11.40;;
62153;SDS011;48140;45.486;9.226;2023-03-14T09:39:51;23.13;;;11.10;;
62153;SDS011;48140;45.486;9.226;2023-03-14T09:42:18;24.45;;;11.45;;
62153;SDS011;48140;45.486;9.226;2023-03-14T09:44:55;21.08;;;11.18;;
62153;SDS011;48140;45.486;9.226;2023-03-14T09:47:24;20.85;;;10.15;;
62153;SDS011;48140;45.486;9.226;2023-03-14T09:49:51;18.50;;;10.88;;
62153;SDS011;48140;45.486;9.226;2023-03-14T09:57:29;17.55;;;9.45;;
62153;SDS011;48140;45.486;9.226;2023-03-14T09:59:58;21.35;;;9.32;;
62153;SDS011;48140;45.486;9.226;2023-03-14T10:02:49;18.02;;;8.63;;
62153;SDS011;48140;45.486;9.226;2023-03-14T10:05:36;14.18;;;8.48;;
62153;SDS011;48140;45.486;9.226;2023-03-14T10:08:02;15.32;;;8.35;;
62153;SDS011;48140;45.486;9.226;2023-03-14T10:10:28;12.85;;;7.72;;
62153;SDS011;48140;45.486;9.226;2023-03-14T10:13:05;20.80;;;7.68;;
62153;SDS011;48140;45.486;9.226;2023-03-14T10:15:41;15.35;;;7.65;;
62153;SDS011;48140;45.486;9.226;2023-03-14T10:18:12;13.65;;;8.20;;
62153;SDS011;48140;45.486;9.226;2023-03-14T10:20:40;12.13;;;6.97;;
62153;SDS011;48140;45.486;9.226;2023-03-14T10:25:38;12.65;;;7.45;;
62153;SDS011;48140;45.486;9.226;2023-03-14T10:28:09;13.27;;;7.35;;
62153;SDS011;48140;45.486;9.226;2023-03-14T10:30:52;12.45;;;7.20;;
62153;SDS011;48140;45.486;9.226;2023-03-14T10:35:58;15.13;;;7.20;;
62153;SDS011;48140;45.486;9.226;2023-03-14T10:38:28;12.70;;;6.57;;
62153;SDS011;48140;45.486;9.226;2023-03-14T10:40:58;12.77;;;6.88;;
62153;SDS011;48140;45.486;9.226;2023-03-14T10:43:31;12.77;;;6.32;;
62153;SDS011;48140;45.486;9.226;2023-03-14T10:46:06;10.30;;;6.38;;
62153;SDS011;48140;45.486;9.226;2023-03-14T10:48:35;11.60;;;6.68;;
62153;SDS011;48140;45.486;9.226;2023-03-14T10:54:02;16.23;;;6.63;;
62153;SDS011;48140;45.486;9.226;2023-03-14T10:56:36;9.82;;;6.03;;
62153;SDS011;48140;45.486;9.226;2023-03-14T10:59:03;11.25;;;6.35;;
62153;SDS011;48140;45.486;9.226;2023-03-14T11:15:41;12.45;;;6.80;;
62153;SDS011;48140;45.486;9.226;2023-03-14T11:32:02;13.82;;;7.78;;
62153;SDS011;48140;45.486;9.226;2023-03-14T11:34:52;13.25;;;7.28;;
62153;SDS011;48140;45.486;9.226;2023-03-14T11:37:40;10.77;;;6.85;;
62153;SDS011;48140;45.486;9.226;2023-03-14T11:40:30;13.07;;;7.72;;
62153;SDS011;48140;45.486;9.226;2023-03-14T11:46:14;13.65;;;7.95;;
62153;SDS011;48140;45.486;9.226;2023-03-14T11:51:25;18.10;;;8.23;;
62153;SDS011;48140;45.486;9.226;2023-03-14T11:54:24;14.65;;;7.70;;
62153;SDS011;48140;45.486;9.226;2023-03-14T11:56:55;13.70;;;7.57;;
62153;SDS011;48140;45.486;9.226;2023-03-14T11:59:41;14.80;;;7.57;;
62153;SDS011;48140;45.486;9.226;2023-03-14T12:05:22;12.93;;;7.78;;
62153;SDS011;48140;45.486;9.226;2023-03-14T12:10:37;13.90;;;8.02;;
62153;SDS011;48140;45.486;9.226;2023-03-14T12:13:08;18.35;;;8.80;;
62153;SDS011;48140;45.486;9.226;2023-03-14T12:15:36;19.40;;;9.85;;
62153;SDS011;48140;45.486;9.226;2023-03-14T12:18:13;18.15;;;9.55;;
62153;SDS011;48140;45.486;9.226;2023-03-14T12:20:54;20.15;;;10.65;;
62153;SDS011;48140;45.486;9.226;2023-03-14T12:23:23;17.13;;;9.43;;
62153;SDS011;48140;45.486;9.226;2023-03-14T12:26:08;16.17;;;10.13;;
62153;SDS011;48140;45.486;9.226;2023-03-14T12:28:39;18.35;;;9.85;;
62153;SDS011;48140;45.486;9.226;2023-03-14T12:47:39;16.27;;;8.95;;
62153;SDS011;48140;45.486;9.226;2023-03-14T12:49:48;19.80;;;10.15;;
62153;SDS011;48140;45.486;9.226;2023-03-14T12:52:19;18.73;;;10.77;;
62153;SDS011;48140;45.486;9.226;2023-03-14T12:55:10;14.38;;;8.75;;
62153;SDS011;48140;45.486;9.226;2023-03-14T12:57:49;14.38;;;8.60;;
62153;SDS011;48140;45.486;9.226;2023-03-14T13:03:02;16.40;;;9.35;;
62153;SDS011;48140;45.486;9.226;2023-03-14T13:05:59;14.40;;;8.98;;
62153;SDS011;48140;45.486;9.226;2023-03-14T13:11:18;20.08;;;10.88;;
62153;SDS011;48140;45.486;9.226;2023-03-14T13:13:48;15.77;;;9.52;;
62153;SDS011;48140;45.486;9.226;2023-03-14T13:16:19;17.13;;;10.13;;
62153;SDS011;48140;45.486;9.226;2023-03-14T13:18:47;21.60;;;10.85;;
62153;SDS011;48140;45.486;9.226;2023-03-14T13:26:36;20.48;;;10.88;;
62153;SDS011;48140;45.486;9.226;2023-03-14T13:31:54;20.55;;;10.32;;
62153;SDS011;48140;45.486;9.226;2023-03-14T13:34:33;15.63;;;9.15;;
62153;SDS011;48140;45.486;9.226;2023-03-14T13:36:59;14.85;;;10.25;;
62153;SDS011;48140;45.486;9.226;2023-03-14T13:39:26;15.65;;;9.85;;
62153;SDS011;48140;45.486;9.226;2023-03-14T13:41:54;15.13;;;9.55;;
62153;SDS011;48140;45.486;9.226;2023-03-14T13:47:05;15.80;;;9.43;;
62153;SDS011;48140;45.486;9.226;2023-03-14T13:49:38;15.85;;;8.77;;
62153;SDS011;48140;45.486;9.226;2023-03-14T13:52:20;13.75;;;9.35;;
62153;SDS011;48140;45.486;9.226;2023-03-14T13:54:47;14.18;;;9.05;;
62153;SDS011;48140;45.486;9.226;2023-03-14T13:57:12;14.48;;;9.07;;
62153;SDS011;48140;45.486;9.226;2023-03-14T13:59:38;20.20;;;9.75;;
62153;SDS011;48140;45.486;9.226;2023-03-14T14:02:12;15.27;;;9.27;;
62153;SDS011;48140;45.486;9.226;2023-03-14T14:04:39;16.67;;;8.50;;
62153;SDS011;48140;45.486;9.226;2023-03-14T14:07:06;14.48;;;9.48;;
62153;SDS011;48140;45.486;9.226;2023-03-14T14:09:38;13.57;;;8.82;;
62153;SDS011;48140;45.486;9.226;2023-03-14T14:15:02;13.55;;;8.32;;
62153;SDS011;48140;45.486;9.226;2023-03-14T14:17:44;12.20;;;8.32;;
62153;SDS011;48140;45.486;9.226;2023-03-14T14:20:26;13.88;;;8.18;;
62153;SDS011;48140;45.486;9.226;2023-03-14T14:25:38;13.05;;;8.40;;
62153;SDS011;48140;45.486;9.226;2023-03-14T14:28:27;14.60;;;8.80;;
62153;SDS011;48140;45.486;9.226;2023-03-14T14:38:58;11.38;;;7.72;;
62153;SDS011;48140;45.486;9.226;2023-03-14T14:41:39;10.90;;;7.65;;
62153;SDS011;48140;45.486;9.226;2023-03-14T15:35:53;12.48;;;8.15;;
62153;SDS011;48140;45.486;9.226;2023-03-14T15:51:16;14.25;;;8.45;;
62153;SDS011;48140;45.486;9.226;2023-03-14T15:56:18;16.65;;;8.68;;
62153;SDS011;48140;45.486;9.226;2023-03-14T15:58:44;13.90;;;9.02;;
62153;SDS011;48140;45.486;9.226;2023-03-14T16:01:13;13.18;;;8.43;;
62153;SDS011;48140;45.486;9.226;2023-03-14T16:11:29;14.68;;;9.32;;
62153;SDS011;48140;45.486;9.226;2023-03-14T16:13:55;13.85;;;9.30;;
62153;SDS011;48140;45.486;9.226;2023-03-14T16:21:31;12.93;;;8.55;;
62153;SDS011;48140;45.486;9.226;2023-03-14T16:23:58;13.10;;;8.85;;
62153;SDS011;48140;45.486;9.226;2023-03-14T16:26:24;14.88;;;9.27;;
62153;SDS011;48140;45.486;9.226;2023-03-14T16:28:50;17.35;;;9.15;;
62153;SDS011;48140;45.486;9.226;2023-03-14T16:31:16;14.43;;;8.80;;
62153;SDS011;48140;45.486;9.226;2023-03-14T16:33:45;13.27;;;8.95;;
62153;SDS011;48140;45.486;9.226;2023-03-14T16:36:11;13.88;;;8.98;;
62153;SDS011;48140;45.486;9.226;2023-03-14T16:38:38;14.70;;;9.02;;
62153;SDS011;48140;45.486;9.226;2023-03-14T16:41:07;16.77;;;9.10;;
62153;SDS011;48140;45.486;9.226;2023-03-14T16:43:38;13.07;;;8.48;;
62153;SDS011;48140;45.486;9.226;2023-03-14T16:48:36;13.52;;;8.55;;
62153;SDS011;48140;45.486;9.226;2023-03-14T16:51:02;14.30;;;8.63;;
62153;SDS011;48140;45.486;9.226;2023-03-14T17:11:35;13.57;;;7.88;;
62153;SDS011;48140;45.486;9.226;2023-03-14T17:14:01;15.23;;;8.32;;
62153;SDS011;48140;45.486;9.226;2023-03-14T17:16:28;15.05;;;7.70;;
62153;SDS011;48140;45.486;9.226;2023-03-14T17:18:54;17.88;;;7.97;;
62153;SDS011;48140;45.486;9.226;2023-03-14T17:21:20;14.45;;;7.72;;
62153;SDS011;48140;45.486;9.226;2023-03-14T17:23:46;14.07;;;8.10;;
62153;SDS011;48140;45.486;9.226;2023-03-14T17:26:11;16.65;;;8.15;;
62153;SDS011;48140;45.486;9.226;2023-03-14T17:28:38;11.00;;;6.82;;
62153;SDS011;48140;45.486;9.226;2023-03-14T17:31:07;12.82;;;7.57;;
62153;SDS011;48140;45.486;9.226;2023-03-14T17:33:36;14.52;;;7.85;;
62153;SDS011;48140;45.486;9.226;2023-03-14T17:36:02;13.05;;;7.63;;
62153;SDS011;48140;45.486;9.226;2023-03-14T17:38:28;13.43;;;6.97;;
62153;SDS011;48140;45.486;9.226;2023-03-14T17:40:54;13.45;;;6.47;;
62153;SDS011;48140;45.486;9.226;2023-03-14T17:43:20;11.70;;;6.90;;
62153;SDS011;48140;45.486;9.226;2023-03-14T17:45:46;10.20;;;6.30;;
62153;SDS011;48140;45.486;9.226;2023-03-14T17:48:12;12.82;;;6.22;;
62153;SDS011;48140;45.486;9.226;2023-03-14T17:50:37;12.70;;;5.78;;
62153;SDS011;48140;45.486;9.226;2023-03-14T17:53:03;9.35;;;5.63;;
62153;SDS011;48140;45.486;9.226;2023-03-14T17:55:29;10.43;;;5.90;;
62153;SDS011;48140;45.486;9.226;2023-03-14T17:57:55;8.93;;;5.07;;
62153;SDS011;48140;45.486;9.226;2023-03-14T18:00:21;9.82;;;5.43;;
62153;SDS011;48140;45.486;9.226;2023-03-14T18:02:48;9.32;;;5.20;;
62153;SDS011;48140;45.486;9.226;2023-03-14T18:05:14;9.88;;;4.75;;
62153;SDS011;48140;45.486;9.226;2023-03-14T18:07:40;10.50;;;4.53;;
62153;SDS011;48140;45.486;9.226;2023-03-14T18:10:06;6.40;;;4.40;;
62153;SDS011;48140;45.486;9.226;2023-03-14T18:12:34;7.53;;;4.95;;
62153;SDS011;48140;45.486;9.226;2023-03-14T18:15:00;7.70;;;4.63;;
62153;SDS011;48140;45.486;9.226;2023-03-14T18:17:27;7.05;;;4.47;;
62153;SDS011;48140;45.486;9.226;2023-03-14T18:19:53;8.57;;;4.95;;
62153;SDS011;48140;45.486;9.226;2023-03-14T18:22:20;7.18;;;4.93;;
62153;SDS011;48140;45.486;9.226;2023-03-14T18:24:45;7.40;;;5.07;;
62153;SDS011;48140;45.486;9.226;2023-03-14T18:27:11;10.82;;;5.28;;
62153;SDS011;48140;45.486;9.226;2023-03-14T18:29:39;6.60;;;4.72;;
62153;SDS011;48140;45.486;9.226;2023-03-14T18:32:06;11.18;;;4.43;;
62153;SDS011;48140;45.486;9.226;2023-03-14T18:34:32;7.68;;;4.25;;